Tropical Cyclones
[Index]
Main Index Home Page Stock Weather Photos Extreme Storms Discussion Storm News and Storm Chasing Reports Tropical Cyclones / Hurricanes / Typhoons Weather Data and Links Wild Fires / Bushfires Weather Observation Techniques Weather Picture Catalogue Tornado Pictures and Reports Stock Video Footage and DVDs for sale
Season 1979-1980 Tropical Cyclone LAURE Track Map
Season 1979-1980 Summaries: [BoM-AU] [JTWC-AU] [JTWC-SIO] [JTWC-SPAC] [JTWC-SH]
<<- Previous TC | JTWC 1979-1980 Season | Next TC ->>

click for intensity scale information  Lat/long Grid: Show Hide

 Date Labels: Show Hide

Joint Typhoon Warning Centre Cyclone Data

Name: LAURE

08 Mar 1980 00:00 UTC to 17 Mar 1980 00:00 UTC

    date/time    lat    long     hPa   cat  kts
1980-03-08 00   12.5    67.5            1     50          
1980-03-08 06   13.1    66.7            1     50          
1980-03-08 12   13.3    65.7            1     50          
1980-03-08 18   13.3    64.3            1     50          
1980-03-09 00   13.0    63.0            1     50          
1980-03-09 06   12.6    61.9            1     50          
1980-03-09 12   12.1    60.8            1     50          
1980-03-09 18   11.8    59.7            1     50          
1980-03-10 00   11.6    58.5            1     50          
1980-03-10 06   11.7    57.4            1     50          
1980-03-10 12   12.1    56.8            1     50          
1980-03-10 18   12.8    56.6            1     50          
1980-03-11 00   13.5    56.4            1     50          
1980-03-11 06   14.1    56.2            2     55          
1980-03-11 12   14.7    56.0            2     60          
1980-03-11 18   15.3    55.9            2     65          
1980-03-12 00   16.0    56.0            2     70          
1980-03-12 06   16.7    56.3            3     75          
1980-03-12 12   17.5    56.8            3     80          
1980-03-12 18   18.3    57.3            3     90          
1980-03-13 00   19.2    57.8            4    100          
1980-03-13 06   20.3    58.3            4    100          
1980-03-13 12   21.2    58.8            4    100          
1980-03-13 18   21.8    59.5            3     95          
1980-03-14 00   22.5    60.3            3     90          
1980-03-14 06   23.1    61.1            3     80          
1980-03-14 12   23.8    61.9            3     75          
1980-03-14 18   24.6    62.1            2     70          
1980-03-15 00   25.5    62.2            2     65          
1980-03-15 06   26.5    62.4            2     60          
1980-03-15 12   27.5    62.7            2     60          
1980-03-15 18   28.4    62.9            2     55          
1980-03-16 00   29.3    63.2            1     50          
1980-03-16 06   30.0    63.7            1     50          
1980-03-16 12   30.7    64.5            1     50          
1980-03-16 18   31.4    65.2            1     45          
1980-03-17 00   32.2    66.0                  35          
Winds are 1-min average.

Tropical cyclone tracks developed by Michael Bath using data from the Joint Typhoon Warning Centre Best Tracks and Google Maps.


[Australian Severe Weather index] [Copyright Notice] [Email Contacts] [Search This Site] [Privacy Policy]
Document: tropical_cyclone_laure.htm Updated: 18 September 2016